createdAt,value
2023-04-16T00:01:28.797Z,100399.00
2023-04-16T00:06:32.245Z,100397.60
2023-04-16T00:11:35.045Z,100398.60
2023-04-16T00:16:38.723Z,100398.40
2023-04-16T00:21:41.729Z,100405.00
2023-04-16T00:26:46.390Z,100401.00
2023-04-16T00:31:49.304Z,100404.20
2023-04-16T00:36:52.299Z,100407.00
2023-04-16T00:41:55.227Z,100405.80
2023-04-16T00:46:59.618Z,100410.80
2023-04-16T00:52:03.459Z,100408.60
2023-04-16T00:57:06.631Z,100411.80
2023-04-16T01:02:09.675Z,100412.80
2023-04-16T01:07:12.726Z,100416.80
2023-04-16T01:12:15.687Z,100415.20
2023-04-16T01:17:18.543Z,100409.80
2023-04-16T01:22:21.375Z,100410.40
2023-04-16T01:27:24.199Z,100408.60
2023-04-16T01:32:27.113Z,100406.00
2023-04-16T01:37:31.055Z,100409.40
2023-04-16T01:42:33.912Z,100402.00
2023-04-16T01:47:37.015Z,100408.00
2023-04-16T01:52:40.082Z,100401.00
2023-04-16T01:57:43.006Z,100401.00
2023-04-16T02:02:46.933Z,100406.60
2023-04-16T02:07:50.094Z,100405.40
2023-04-16T02:12:52.920Z,100408.60
2023-04-16T02:17:57.353Z,100412.60
2023-04-16T02:23:00.620Z,100412.00
2023-04-16T02:28:03.560Z,100410.60
2023-04-16T02:33:08.715Z,100415.40
2023-04-16T02:38:11.636Z,100418.20
2023-04-16T02:43:14.603Z,100416.80
2023-04-16T02:48:17.546Z,100415.80
2023-04-16T02:53:21.517Z,100420.40
2023-04-16T02:58:26.513Z,100424.60
2023-04-16T03:03:29.431Z,100424.40
2023-04-16T03:08:32.306Z,100429.80
2023-04-16T03:13:35.331Z,100434.60
2023-04-16T03:18:38.154Z,100436.20
2023-04-16T03:23:41.059Z,100439.20
2023-04-16T03:28:43.870Z,100439.80
2023-04-16T03:33:46.746Z,100440.40
2023-04-16T03:38:50.711Z,100445.60
2023-04-16T03:43:53.696Z,100448.00
2023-04-16T03:48:56.471Z,100449.80
2023-04-16T03:53:59.363Z,100454.40
2023-04-16T03:59:02.205Z,100454.80
2023-04-16T04:04:05.163Z,100457.80
2023-04-16T04:09:08.421Z,100465.20
2023-04-16T04:14:11.576Z,100466.60
2023-04-16T04:19:14.386Z,100473.80
2023-04-16T04:24:17.282Z,100474.40
2023-04-16T04:29:20.320Z,100481.60
2023-04-16T04:34:23.160Z,100486.00
2023-04-16T04:39:26.322Z,100488.60
2023-04-16T04:44:29.107Z,100493.80
2023-04-16T04:49:32.082Z,100497.00
2023-04-16T04:54:34.924Z,100498.40
2023-04-16T04:59:37.807Z,100503.80
2023-04-16T05:04:40.701Z,100507.00
2023-04-16T05:09:43.653Z,100504.80
2023-04-16T05:14:46.518Z,100506.60
2023-04-16T05:19:49.428Z,100504.80
2023-04-16T05:24:52.306Z,100507.80
2023-04-16T05:29:55.456Z,100506.40
2023-04-16T05:34:58.850Z,100521.00
2023-04-16T05:40:01.747Z,100525.80
2023-04-16T05:45:07.044Z,100532.80
2023-04-16T05:50:10.884Z,100532.40
2023-04-16T05:55:13.952Z,100535.60
2023-04-16T06:00:17.167Z,100538.00
2023-04-16T06:05:20.345Z,100533.60
2023-04-16T06:10:23.433Z,100537.80
2023-04-16T06:15:26.387Z,100534.20
2023-04-16T06:20:29.718Z,100539.60
2023-04-16T06:25:32.621Z,100545.80
2023-04-16T06:30:35.796Z,100549.80
2023-04-16T06:35:38.638Z,100548.40
2023-04-16T06:40:41.760Z,100550.40
2023-04-16T06:45:44.658Z,100547.20
2023-04-16T06:50:47.578Z,100550.80
2023-04-16T06:55:50.634Z,100551.20
2023-04-16T07:00:53.529Z,100553.00
2023-04-16T07:05:57.157Z,100558.80
2023-04-16T07:11:00.366Z,100559.00
2023-04-16T07:16:03.382Z,100558.40
2023-04-16T07:21:06.564Z,100561.40
2023-04-16T07:26:09.797Z,100566.20
2023-04-16T07:31:12.884Z,100568.80
2023-04-16T07:36:15.865Z,100567.60
2023-04-16T07:41:18.761Z,100580.00
2023-04-16T07:46:22.219Z,100580.20
2023-04-16T07:51:26.262Z,100576.40
2023-04-16T07:56:29.144Z,100588.40
2023-04-16T08:01:33.115Z,100584.80
2023-04-16T08:06:36.068Z,100589.40
2023-04-16T08:11:38.915Z,100588.00
2023-04-16T08:16:41.995Z,100596.00
2023-04-16T08:21:45.547Z,100596.80
2023-04-16T08:26:48.418Z,100597.80
2023-04-16T08:31:51.408Z,100595.80
2023-04-16T08:36:54.522Z,100605.20
2023-04-16T08:41:59.617Z,100611.00
2023-04-16T08:47:05.349Z,100620.20
2023-04-16T08:52:14.891Z,100622.20
2023-04-16T08:57:20.756Z,100630.60
2023-04-16T09:02:26.998Z,100636.40
2023-04-16T09:07:31.352Z,100634.60
2023-04-16T09:12:35.864Z,100638.40
2023-04-16T09:17:39.954Z,100645.40
2023-04-16T09:22:43.815Z,100647.40
2023-04-16T09:27:51.066Z,100648.20
2023-04-16T09:33:13.219Z,100650.40
2023-04-16T09:38:17.225Z,100658.60
2023-04-16T09:43:21.057Z,100663.20
2023-04-16T09:48:32.816Z,100661.60
2023-04-16T09:53:36.164Z,100668.20
2023-04-16T09:58:39.351Z,100670.20
2023-04-16T10:03:43.073Z,100675.60
2023-04-16T10:08:52.955Z,100677.40
2023-04-16T10:13:55.811Z,100684.60
2023-04-16T10:18:59.216Z,100693.60
2023-04-16T10:24:03.414Z,100690.40
2023-04-16T10:29:07.832Z,100693.40
2023-04-16T10:34:11.441Z,100697.40
2023-04-16T10:39:20.825Z,100701.20
2023-04-16T10:44:25.060Z,100699.60
2023-04-16T10:49:27.958Z,100705.00
2023-04-16T10:54:32.205Z,100705.80
2023-04-16T10:59:39.920Z,100707.40
2023-04-16T11:04:46.214Z,100708.80
2023-04-16T11:10:07.368Z,100718.60
2023-04-16T11:15:13.670Z,100719.80
2023-04-16T11:20:25.688Z,100723.40
2023-04-16T11:25:31.727Z,100729.00
2023-04-16T11:30:38.157Z,100733.60
2023-04-16T11:35:41.561Z,100732.00
2023-04-16T11:40:44.695Z,100728.80
2023-04-16T11:46:12.967Z,100730.40
2023-04-16T11:51:20.687Z,100735.00
2023-04-16T11:56:35.871Z,100745.00
2023-04-16T12:01:41.663Z,100748.80
2023-04-16T12:07:14.354Z,100753.80
2023-04-16T12:12:31.692Z,100754.00
2023-04-16T12:17:36.522Z,100763.20
2023-04-16T12:22:47.773Z,100764.40
2023-04-16T12:27:56.053Z,100770.40
2023-04-16T12:33:21.242Z,100771.20
2023-04-16T12:38:25.718Z,100770.80
2023-04-16T12:43:28.953Z,100771.00
2023-04-16T12:48:32.651Z,100766.80
2023-04-16T12:53:35.681Z,100770.40
2023-04-16T12:58:38.762Z,100774.60
2023-04-16T13:03:42.903Z,100769.00
2023-04-16T13:08:46.733Z,100772.60
2023-04-16T13:13:49.587Z,100775.00
2023-04-16T13:18:52.567Z,100770.20
2023-04-16T13:23:55.567Z,100777.60
2023-04-16T13:28:58.538Z,100768.60
2023-04-16T13:34:01.529Z,100768.20
2023-04-16T13:39:05.505Z,100779.20
2023-04-16T13:44:08.360Z,100782.80
2023-04-16T13:49:11.571Z,100781.40
2023-04-16T13:54:14.751Z,100778.80
2023-04-16T13:59:18.684Z,100779.20
2023-04-16T14:04:22.530Z,100784.80
2023-04-16T14:09:25.838Z,100784.60
2023-04-16T14:14:28.799Z,100778.80
2023-04-16T14:19:31.666Z,100779.40
2023-04-16T14:24:34.520Z,100786.00
2023-04-16T14:29:37.475Z,100792.40
2023-04-16T14:34:40.599Z,100788.00
2023-04-16T14:39:43.629Z,100790.60
2023-04-16T14:44:46.551Z,100791.40
2023-04-16T14:49:49.501Z,100789.20
2023-04-16T14:54:52.636Z,100784.60
2023-04-16T14:59:55.549Z,100790.60
2023-04-16T15:04:59.841Z,100800.80
2023-04-16T15:10:03.225Z,100803.00
2023-04-16T15:15:09.987Z,100802.00
2023-04-16T15:20:13.596Z,100800.20
2023-04-16T15:25:16.611Z,100803.00
2023-04-16T15:30:19.748Z,100804.80
2023-04-16T15:35:22.718Z,100812.20
2023-04-16T15:40:25.764Z,100809.80
2023-04-16T15:45:28.709Z,100813.60
2023-04-16T15:50:31.944Z,100814.60
2023-04-16T15:55:35.907Z,100817.00
2023-04-16T16:00:39.341Z,100822.80
2023-04-16T16:05:42.323Z,100825.40
2023-04-16T16:10:45.309Z,100827.00
2023-04-16T16:15:48.261Z,100832.80
2023-04-16T16:20:57.329Z,100835.80
2023-04-16T16:26:00.356Z,100842.20
2023-04-16T16:31:07.365Z,100847.60
2023-04-16T16:36:11.731Z,100847.20
2023-04-16T16:41:14.695Z,100846.40
2023-04-16T16:46:17.672Z,100850.20
2023-04-16T16:51:20.712Z,100857.20
2023-04-16T16:56:23.573Z,100856.00
2023-04-16T17:01:27.195Z,100857.60
2023-04-16T17:06:30.338Z,100857.80
2023-04-16T17:11:33.406Z,100859.80
2023-04-16T17:16:36.819Z,100857.60
2023-04-16T17:21:39.888Z,100864.60
2023-04-16T17:26:42.850Z,100873.60
2023-04-16T17:31:45.869Z,100876.00
2023-04-16T17:36:52.088Z,100882.00
2023-04-16T17:41:58.634Z,100879.00
2023-04-16T17:47:02.320Z,100887.00
2023-04-16T17:52:05.777Z,100889.00
2023-04-16T17:57:08.868Z,100899.00
2023-04-16T18:02:12.285Z,100896.40
2023-04-16T18:07:15.875Z,100904.80
2023-04-16T18:12:19.196Z,100914.00
2023-04-16T18:17:23.367Z,100922.20
2023-04-16T18:22:28.491Z,100924.40
2023-04-16T18:27:31.966Z,100921.20
2023-04-16T18:32:35.562Z,100921.20
2023-04-16T18:37:40.449Z,100929.80
2023-04-16T18:42:43.464Z,100932.00
2023-04-16T18:47:47.887Z,100934.20
2023-04-16T18:52:50.996Z,100939.20
2023-04-16T18:57:55.346Z,100936.40
2023-04-16T19:02:58.264Z,100940.00
2023-04-16T19:08:01.544Z,100945.40
2023-04-16T19:13:06.371Z,100941.40
2023-04-16T19:18:11.446Z,100944.20
2023-04-16T19:23:15.404Z,100948.80
2023-04-16T19:28:19.288Z,100944.40
2023-04-16T19:33:22.340Z,100946.80
2023-04-16T19:38:25.616Z,100943.20
2023-04-16T19:43:30.982Z,100944.60
2023-04-16T19:48:34.047Z,100943.80
2023-04-16T19:53:37.645Z,100940.60
2023-04-16T19:58:41.730Z,100941.40
2023-04-16T20:03:44.926Z,100934.60
2023-04-16T20:08:48.197Z,100930.60
2023-04-16T20:13:51.054Z,100931.80
2023-04-16T20:18:56.987Z,100933.60
2023-04-16T20:24:00.735Z,100930.40
2023-04-16T20:29:03.925Z,100931.20
2023-04-16T20:34:07.771Z,100934.20
2023-04-16T20:39:11.292Z,100936.60
2023-04-16T20:44:18.369Z,100937.60
2023-04-16T20:49:21.241Z,100948.20
2023-04-16T20:54:24.099Z,100953.60
2023-04-16T20:59:27.075Z,100952.60
2023-04-16T21:04:30.360Z,100954.60
2023-04-16T21:09:33.416Z,100960.80
2023-04-16T21:14:36.496Z,100963.80
2023-04-16T21:19:40.303Z,100967.80
2023-04-16T21:24:43.190Z,100970.40
2023-04-16T21:29:46.070Z,100970.60
2023-04-16T21:34:48.873Z,100973.40
2023-04-16T21:39:51.752Z,100970.40
2023-04-16T21:44:54.580Z,100971.80
2023-04-16T21:49:57.458Z,100967.00
2023-04-16T21:55:01.199Z,100968.60
2023-04-16T22:00:09.326Z,100972.60
2023-04-16T22:05:12.702Z,100971.40
2023-04-16T22:10:15.827Z,100973.20
2023-04-16T22:15:18.678Z,100973.00
2023-04-16T22:20:22.515Z,100970.40
2023-04-16T22:25:25.852Z,100967.80
2023-04-16T22:30:28.811Z,100969.40
2023-04-16T22:35:31.690Z,100967.60
2023-04-16T22:40:34.568Z,100966.20
2023-04-16T22:45:37.546Z,100972.60
2023-04-16T22:50:48.913Z,100973.40
2023-04-16T22:55:51.866Z,100977.40
2023-04-16T23:00:56.774Z,100979.40
2023-04-16T23:05:59.742Z,100981.80
2023-04-16T23:11:02.606Z,100985.00
2023-04-16T23:16:06.303Z,100983.00
2023-04-16T23:21:09.233Z,100978.20
2023-04-16T23:26:12.171Z,100978.20
2023-04-16T23:31:15.151Z,100982.60
2023-04-16T23:36:18.191Z,100986.80
2023-04-16T23:41:23.345Z,100984.80
2023-04-16T23:46:26.332Z,100986.00
2023-04-16T23:51:29.211Z,100993.40
2023-04-16T23:56:32.080Z,100986.40
